sensor_id;sensor_type;location;lat;lon;timestamp;P1;durP1;ratioP1;P2;durP2;ratioP2
5929;SDS011;2990;48.746;9.236;2022-09-09T07:08:54;404.67;;;382.20;;
5929;SDS011;2990;48.746;9.236;2022-09-09T07:11:21;287.92;;;273.33;;
5929;SDS011;2990;48.746;9.236;2022-09-09T07:13:47;255.93;;;243.40;;
5929;SDS011;2990;48.746;9.236;2022-09-09T07:16:15;218.98;;;208.32;;
5929;SDS011;2990;48.746;9.236;2022-09-09T07:18:41;238.65;;;226.52;;
5929;SDS011;2990;48.746;9.236;2022-09-09T07:21:09;273.58;;;259.00;;
5929;SDS011;2990;48.746;9.236;2022-09-09T07:23:35;268.35;;;253.82;;
5929;SDS011;2990;48.746;9.236;2022-09-09T07:26:01;347.58;;;327.25;;
5929;SDS011;2990;48.746;9.236;2022-09-09T07:28:27;323.52;;;305.35;;
5929;SDS011;2990;48.746;9.236;2022-09-09T07:30:56;393.52;;;370.38;;
5929;SDS011;2990;48.746;9.236;2022-09-09T07:33:24;406.58;;;381.95;;
5929;SDS011;2990;48.746;9.236;2022-09-09T07:35:50;530.53;;;495.77;;
5929;SDS011;2990;48.746;9.236;2022-09-09T07:38:17;670.13;;;624.13;;
5929;SDS011;2990;48.746;9.236;2022-09-09T07:40:43;734.78;;;683.70;;
5929;SDS011;2990;48.746;9.236;2022-09-09T07:43:09;743.33;;;692.25;;
5929;SDS011;2990;48.746;9.236;2022-09-09T07:45:36;791.60;;;736.83;;
5929;SDS011;2990;48.746;9.236;2022-09-09T07:48:02;734.67;;;685.15;;
5929;SDS011;2990;48.746;9.236;2022-09-09T07:50:28;812.25;;;755.78;;
5929;SDS011;2990;48.746;9.236;2022-09-09T07:52:54;855.17;;;794.78;;
5929;SDS011;2990;48.746;9.236;2022-09-09T07:55:20;791.05;;;737.30;;
5929;SDS011;2990;48.746;9.236;2022-09-09T07:57:48;840.63;;;781.42;;
5929;SDS011;2990;48.746;9.236;2022-09-09T08:00:14;843.10;;;785.10;;
5929;SDS011;2990;48.746;9.236;2022-09-09T08:02:40;821.00;;;765.13;;
5929;SDS011;2990;48.746;9.236;2022-09-09T08:12:07;658.00;;;614.80;;
5929;SDS011;2990;48.746;9.236;2022-09-09T08:14:33;697.75;;;650.83;;
5929;SDS011;2990;48.746;9.236;2022-09-09T08:16:59;648.47;;;605.97;;
5929;SDS011;2990;48.746;9.236;2022-09-09T08:19:25;597.53;;;559.60;;
5929;SDS011;2990;48.746;9.236;2022-09-09T08:21:50;577.17;;;541.60;;
5929;SDS011;2990;48.746;9.236;2022-09-09T08:24:16;394.55;;;373.35;;
5929;SDS011;2990;48.746;9.236;2022-09-09T08:26:45;350.77;;;332.02;;
5929;SDS011;2990;48.746;9.236;2022-09-09T08:29:14;201.15;;;192.02;;
5929;SDS011;2990;48.746;9.236;2022-09-09T08:34:08;89.03;;;85.28;;
5929;SDS011;2990;48.746;9.236;2022-09-09T08:36:35;110.43;;;105.60;;
5929;SDS011;2990;48.746;9.236;2022-09-09T08:39:07;197.82;;;188.18;;
5929;SDS011;2990;48.746;9.236;2022-09-09T08:57:56;731.85;;;682.53;;
5929;SDS011;2990;48.746;9.236;2022-09-09T09:00:28;667.92;;;623.38;;
5929;SDS011;2990;48.746;9.236;2022-09-09T09:09:03;312.83;;;295.83;;
5929;SDS011;2990;48.746;9.236;2022-09-09T09:14:24;364.23;;;343.77;;
5929;SDS011;2990;48.746;9.236;2022-09-09T09:19:23;691.97;;;646.55;;
5929;SDS011;2990;48.746;9.236;2022-09-09T09:21:57;978.47;;;902.10;;
5929;SDS011;2990;48.746;9.236;2022-09-09T09:32:40;1018.33;;;937.65;;
5929;SDS011;2990;48.746;9.236;2022-09-09T09:35:14;906.25;;;840.58;;
5929;SDS011;2990;48.746;9.236;2022-09-09T09:37:40;457.80;;;428.98;;
5929;SDS011;2990;48.746;9.236;2022-09-09T09:40:07;577.13;;;539.97;;
5929;SDS011;2990;48.746;9.236;2022-09-09T09:42:37;483.38;;;454.35;;
5929;SDS011;2990;48.746;9.236;2022-09-09T09:45:17;124.93;;;119.28;;
5929;SDS011;2990;48.746;9.236;2022-09-09T09:48:02;200.75;;;190.43;;
5929;SDS011;2990;48.746;9.236;2022-09-09T09:50:30;615.30;;;574.88;;
5929;SDS011;2990;48.746;9.236;2022-09-09T09:52:58;600.45;;;561.65;;
5929;SDS011;2990;48.746;9.236;2022-09-09T09:55:25;697.58;;;651.05;;
5929;SDS011;2990;48.746;9.236;2022-09-09T09:57:54;630.40;;;589.08;;
5929;SDS011;2990;48.746;9.236;2022-09-09T10:00:26;703.72;;;656.78;;
5929;SDS011;2990;48.746;9.236;2022-09-09T10:02:52;712.83;;;664.88;;
5929;SDS011;2990;48.746;9.236;2022-09-09T10:07:44;658.05;;;614.78;;
5929;SDS011;2990;48.746;9.236;2022-09-09T10:10:20;292.27;;;277.85;;
5929;SDS011;2990;48.746;9.236;2022-09-09T10:15:34;122.95;;;117.63;;
5929;SDS011;2990;48.746;9.236;2022-09-09T10:18:15;200.95;;;191.45;;
5929;SDS011;2990;48.746;9.236;2022-09-09T10:24:07;676.03;;;630.80;;
5929;SDS011;2990;48.746;9.236;2022-09-09T10:27:05;716.22;;;667.45;;
5929;SDS011;2990;48.746;9.236;2022-09-09T10:29:59;739.53;;;689.55;;
5929;SDS011;2990;48.746;9.236;2022-09-09T10:32:36;764.42;;;712.65;;
5929;SDS011;2990;48.746;9.236;2022-09-09T10:38:15;363.95;;;342.95;;
5929;SDS011;2990;48.746;9.236;2022-09-09T10:40:48;384.20;;;362.40;;
5929;SDS011;2990;48.746;9.236;2022-09-09T10:43:33;564.67;;;528.70;;
5929;SDS011;2990;48.746;9.236;2022-09-09T10:46:22;447.98;;;421.15;;
5929;SDS011;2990;48.746;9.236;2022-09-09T10:52:13;1139.68;;;999.90;;
5929;SDS011;2990;48.746;9.236;2022-09-09T10:54:56;1186.90;;;999.90;;
5929;SDS011;2990;48.746;9.236;2022-09-09T10:57:37;1210.20;;;999.90;;
5929;SDS011;2990;48.746;9.236;2022-09-09T11:00:10;1245.65;;;999.90;;
5929;SDS011;2990;48.746;9.236;2022-09-09T11:02:42;1261.60;;;999.90;;
5929;SDS011;2990;48.746;9.236;2022-09-09T11:05:20;1266.00;;;999.90;;
5929;SDS011;2990;48.746;9.236;2022-09-09T11:08:15;1269.88;;;999.90;;
5929;SDS011;2990;48.746;9.236;2022-09-09T11:10:48;1254.10;;;999.90;;
5929;SDS011;2990;48.746;9.236;2022-09-09T11:13:25;1274.25;;;999.90;;
5929;SDS011;2990;48.746;9.236;2022-09-09T11:18:46;1192.97;;;999.90;;
5929;SDS011;2990;48.746;9.236;2022-09-09T11:21:16;1247.07;;;999.90;;
5929;SDS011;2990;48.746;9.236;2022-09-09T11:23:49;1277.55;;;999.90;;
5929;SDS011;2990;48.746;9.236;2022-09-09T11:26:25;1250.70;;;999.90;;
5929;SDS011;2990;48.746;9.236;2022-09-09T11:29:19;1254.07;;;999.90;;
5929;SDS011;2990;48.746;9.236;2022-09-09T11:37:17;1181.32;;;999.90;;
5929;SDS011;2990;48.746;9.236;2022-09-09T11:42:40;1130.00;;;999.90;;
5929;SDS011;2990;48.746;9.236;2022-09-09T11:47:52;1064.90;;;978.05;;
5929;SDS011;2990;48.746;9.236;2022-09-09T11:52:45;1055.57;;;970.45;;
5929;SDS011;2990;48.746;9.236;2022-09-09T11:55:24;1077.60;;;988.47;;
5929;SDS011;2990;48.746;9.236;2022-09-09T11:58:04;1079.50;;;990.40;;
5929;SDS011;2990;48.746;9.236;2022-09-09T12:00:43;1059.88;;;973.42;;
5929;SDS011;2990;48.746;9.236;2022-09-09T12:05:57;1082.10;;;990.95;;
5929;SDS011;2990;48.746;9.236;2022-09-09T12:08:26;1089.07;;;995.88;;
5929;SDS011;2990;48.746;9.236;2022-09-09T12:10:55;1065.70;;;978.60;;
5929;SDS011;2990;48.746;9.236;2022-09-09T12:13:31;1107.63;;;999.90;;
5929;SDS011;2990;48.746;9.236;2022-09-09T12:16:00;1089.43;;;995.53;;
5929;SDS011;2990;48.746;9.236;2022-09-09T12:18:37;1038.00;;;954.25;;
5929;SDS011;2990;48.746;9.236;2022-09-09T12:21:21;1062.20;;;977.35;;
5929;SDS011;2990;48.746;9.236;2022-09-09T12:24:10;1063.68;;;977.30;;
5929;SDS011;2990;48.746;9.236;2022-09-09T12:37:02;1106.93;;;999.90;;
5929;SDS011;2990;48.746;9.236;2022-09-09T12:39:54;881.85;;;820.25;;
5929;SDS011;2990;48.746;9.236;2022-09-09T12:42:22;755.17;;;705.05;;
5929;SDS011;2990;48.746;9.236;2022-09-09T12:44:52;833.00;;;775.88;;
5929;SDS011;2990;48.746;9.236;2022-09-09T12:47:21;954.45;;;885.88;;
5929;SDS011;2990;48.746;9.236;2022-09-09T12:50:18;773.95;;;722.00;;
5929;SDS011;2990;48.746;9.236;2022-09-09T12:52:53;773.35;;;722.00;;
5929;SDS011;2990;48.746;9.236;2022-09-09T12:55:25;595.83;;;559.13;;
5929;SDS011;2990;48.746;9.236;2022-09-09T12:57:55;701.40;;;655.60;;
5929;SDS011;2990;48.746;9.236;2022-09-09T13:00:23;628.33;;;588.10;;
5929;SDS011;2990;48.746;9.236;2022-09-09T13:02:54;814.95;;;759.75;;
5929;SDS011;2990;48.746;9.236;2022-09-09T13:05:23;800.28;;;746.80;;
5929;SDS011;2990;48.746;9.236;2022-09-09T13:08:04;553.70;;;519.63;;
5929;SDS011;2990;48.746;9.236;2022-09-09T13:10:33;667.67;;;624.13;;
5929;SDS011;2990;48.746;9.236;2022-09-09T13:13:03;831.08;;;775.10;;
5929;SDS011;2990;48.746;9.236;2022-09-09T13:15:30;547.60;;;514.80;;
5929;SDS011;2990;48.746;9.236;2022-09-09T13:17:57;707.20;;;660.92;;
5929;SDS011;2990;48.746;9.236;2022-09-09T13:20:26;764.42;;;713.30;;
5929;SDS011;2990;48.746;9.236;2022-09-09T13:22:53;733.35;;;685.15;;
5929;SDS011;2990;48.746;9.236;2022-09-09T13:25:24;625.17;;;585.55;;
5929;SDS011;2990;48.746;9.236;2022-09-09T13:27:58;690.17;;;645.17;;
5929;SDS011;2990;48.746;9.236;2022-09-09T13:30:32;684.03;;;639.35;;
5929;SDS011;2990;48.746;9.236;2022-09-09T13:35:46;834.35;;;777.28;;
5929;SDS011;2990;48.746;9.236;2022-09-09T13:38:23;643.22;;;602.13;;
5929;SDS011;2990;48.746;9.236;2022-09-09T13:40:57;470.60;;;443.45;;
5929;SDS011;2990;48.746;9.236;2022-09-09T13:43:26;370.25;;;350.20;;
5929;SDS011;2990;48.746;9.236;2022-09-09T13:45:54;329.52;;;312.00;;
5929;SDS011;2990;48.746;9.236;2022-09-09T13:48:24;353.50;;;335.02;;
5929;SDS011;2990;48.746;9.236;2022-09-09T13:50:54;130.65;;;124.93;;
5929;SDS011;2990;48.746;9.236;2022-09-09T13:53:21;56.80;;;54.53;;
5929;SDS011;2990;48.746;9.236;2022-09-09T13:55:46;141.40;;;135.20;;
5929;SDS011;2990;48.746;9.236;2022-09-09T13:58:15;345.25;;;327.13;;
5929;SDS011;2990;48.746;9.236;2022-09-09T14:00:43;151.90;;;145.05;;
5929;SDS011;2990;48.746;9.236;2022-09-09T14:03:10;156.05;;;149.02;;
5929;SDS011;2990;48.746;9.236;2022-09-09T14:05:35;239.98;;;228.35;;
5929;SDS011;2990;48.746;9.236;2022-09-09T14:08:03;88.75;;;85.00;;
5929;SDS011;2990;48.746;9.236;2022-09-09T14:10:30;185.68;;;177.13;;
5929;SDS011;2990;48.746;9.236;2022-09-09T14:12:56;180.45;;;172.27;;
5929;SDS011;2990;48.746;9.236;2022-09-09T14:15:21;165.10;;;157.65;;
5929;SDS011;2990;48.746;9.236;2022-09-09T14:17:47;121.10;;;115.95;;
5929;SDS011;2990;48.746;9.236;2022-09-09T14:20:13;110.70;;;106.05;;
5929;SDS011;2990;48.746;9.236;2022-09-09T14:22:40;166.48;;;159.02;;
5929;SDS011;2990;48.746;9.236;2022-09-09T14:25:06;264.42;;;251.60;;
5929;SDS011;2990;48.746;9.236;2022-09-09T14:27:32;312.73;;;296.98;;
5929;SDS011;2990;48.746;9.236;2022-09-09T14:29:58;237.00;;;225.88;;
5929;SDS011;2990;48.746;9.236;2022-09-09T14:32:25;326.98;;;310.42;;
5929;SDS011;2990;48.746;9.236;2022-09-09T14:34:51;279.38;;;265.73;;
5929;SDS011;2990;48.746;9.236;2022-09-09T14:37:17;295.83;;;281.02;;
5929;SDS011;2990;48.746;9.236;2022-09-09T14:39:43;302.35;;;287.30;;
5929;SDS011;2990;48.746;9.236;2022-09-09T14:42:12;313.30;;;297.65;;
5929;SDS011;2990;48.746;9.236;2022-09-09T14:44:38;304.42;;;289.27;;
5929;SDS011;2990;48.746;9.236;2022-09-09T14:47:04;267.02;;;254.05;;
5929;SDS011;2990;48.746;9.236;2022-09-09T14:49:30;299.95;;;285.05;;
5929;SDS011;2990;48.746;9.236;2022-09-09T14:51:56;329.88;;;313.00;;
5929;SDS011;2990;48.746;9.236;2022-09-09T14:54:22;322.10;;;305.65;;
5929;SDS011;2990;48.746;9.236;2022-09-09T14:56:47;355.38;;;336.92;;
5929;SDS011;2990;48.746;9.236;2022-09-09T14:59:13;352.05;;;333.75;;
5929;SDS011;2990;48.746;9.236;2022-09-09T15:01:39;359.20;;;340.40;;
5929;SDS011;2990;48.746;9.236;2022-09-09T15:04:05;384.35;;;363.85;;
5929;SDS011;2990;48.746;9.236;2022-09-09T15:06:32;384.92;;;364.25;;
5929;SDS011;2990;48.746;9.236;2022-09-09T15:09:00;362.48;;;343.27;;
5929;SDS011;2990;48.746;9.236;2022-09-09T15:11:27;395.00;;;373.65;;
5929;SDS011;2990;48.746;9.236;2022-09-09T15:13:55;397.33;;;375.83;;
5929;SDS011;2990;48.746;9.236;2022-09-09T15:16:22;395.52;;;374.02;;
5929;SDS011;2990;48.746;9.236;2022-09-09T15:18:50;415.17;;;392.38;;
5929;SDS011;2990;48.746;9.236;2022-09-09T15:21:19;397.98;;;376.50;;
5929;SDS011;2990;48.746;9.236;2022-09-09T15:23:46;412.10;;;389.55;;
5929;SDS011;2990;48.746;9.236;2022-09-09T15:26:12;421.50;;;398.45;;
5929;SDS011;2990;48.746;9.236;2022-09-09T15:28:42;421.45;;;398.58;;
5929;SDS011;2990;48.746;9.236;2022-09-09T15:31:30;399.80;;;378.02;;
5929;SDS011;2990;48.746;9.236;2022-09-09T15:33:59;378.35;;;358.17;;
5929;SDS011;2990;48.746;9.236;2022-09-09T15:39:00;371.58;;;351.95;;
5929;SDS011;2990;48.746;9.236;2022-09-09T15:41:26;326.35;;;309.83;;
5929;SDS011;2990;48.746;9.236;2022-09-09T15:43:54;342.52;;;324.92;;
5929;SDS011;2990;48.746;9.236;2022-09-09T15:46:30;320.38;;;304.25;;
5929;SDS011;2990;48.746;9.236;2022-09-09T15:49:10;255.30;;;242.95;;
5929;SDS011;2990;48.746;9.236;2022-09-09T15:51:43;285.08;;;271.17;;
5929;SDS011;2990;48.746;9.236;2022-09-09T15:54:12;263.35;;;250.68;;
5929;SDS011;2990;48.746;9.236;2022-09-09T15:56:41;226.65;;;216.05;;
5929;SDS011;2990;48.746;9.236;2022-09-09T15:59:07;221.23;;;210.98;;
5929;SDS011;2990;48.746;9.236;2022-09-09T16:01:34;174.38;;;166.65;;
5929;SDS011;2990;48.746;9.236;2022-09-09T16:04:00;150.73;;;144.15;;
5929;SDS011;2990;48.746;9.236;2022-09-09T16:06:26;113.75;;;108.95;;
5929;SDS011;2990;48.746;9.236;2022-09-09T16:08:53;93.72;;;89.82;;
5929;SDS011;2990;48.746;9.236;2022-09-09T16:11:24;82.45;;;79.05;;
5929;SDS011;2990;48.746;9.236;2022-09-09T16:13:52;56.85;;;54.58;;
5929;SDS011;2990;48.746;9.236;2022-09-09T16:16:21;56.50;;;54.30;;
5929;SDS011;2990;48.746;9.236;2022-09-09T16:18:53;39.85;;;38.45;;
5929;SDS011;2990;48.746;9.236;2022-09-09T16:21:22;32.85;;;31.85;;
5929;SDS011;2990;48.746;9.236;2022-09-09T16:23:56;25.40;;;24.77;;
5929;SDS011;2990;48.746;9.236;2022-09-09T16:26:27;24.23;;;23.63;;
5929;SDS011;2990;48.746;9.236;2022-09-09T16:28:55;21.00;;;20.60;;
5929;SDS011;2990;48.746;9.236;2022-09-09T16:31:21;20.25;;;19.85;;
5929;SDS011;2990;48.746;9.236;2022-09-09T16:33:49;23.23;;;22.73;;
5929;SDS011;2990;48.746;9.236;2022-09-09T16:36:16;22.50;;;22.00;;
5929;SDS011;2990;48.746;9.236;2022-09-09T16:38:44;26.85;;;26.10;;
5929;SDS011;2990;48.746;9.236;2022-09-09T16:41:10;33.53;;;32.45;;
5929;SDS011;2990;48.746;9.236;2022-09-09T16:43:37;34.97;;;33.88;;
5929;SDS011;2990;48.746;9.236;2022-09-09T16:46:10;51.85;;;49.90;;
5929;SDS011;2990;48.746;9.236;2022-09-09T16:48:45;125.50;;;120.10;;
5929;SDS011;2990;48.746;9.236;2022-09-09T16:51:16;244.55;;;232.85;;
5929;SDS011;2990;48.746;9.236;2022-09-09T16:53:43;369.50;;;349.83;;
5929;SDS011;2990;48.746;9.236;2022-09-09T16:56:31;477.33;;;449.55;;
5929;SDS011;2990;48.746;9.236;2022-09-09T16:58:58;465.45;;;438.85;;
5929;SDS011;2990;48.746;9.236;2022-09-09T17:01:27;548.40;;;514.95;;
5929;SDS011;2990;48.746;9.236;2022-09-09T17:03:54;583.28;;;546.70;;
5929;SDS011;2990;48.746;9.236;2022-09-09T17:06:21;619.20;;;579.83;;
5929;SDS011;2990;48.746;9.236;2022-09-09T17:08:48;654.17;;;611.67;;
5929;SDS011;2990;48.746;9.236;2022-09-09T17:11:19;682.30;;;637.15;;
5929;SDS011;2990;48.746;9.236;2022-09-09T17:13:45;645.78;;;604.47;;
5929;SDS011;2990;48.746;9.236;2022-09-09T17:16:12;669.17;;;625.00;;
5929;SDS011;2990;48.746;9.236;2022-09-09T17:18:39;622.17;;;582.08;;
5929;SDS011;2990;48.746;9.236;2022-09-09T17:21:06;652.55;;;609.50;;
5929;SDS011;2990;48.746;9.236;2022-09-09T17:23:34;686.55;;;641.08;;
5929;SDS011;2990;48.746;9.236;2022-09-09T17:26:02;715.05;;;667.35;;
5929;SDS011;2990;48.746;9.236;2022-09-09T17:28:30;770.03;;;718.40;;
5929;SDS011;2990;48.746;9.236;2022-09-09T17:30:59;806.92;;;751.88;;
5929;SDS011;2990;48.746;9.236;2022-09-09T17:33:27;851.75;;;792.85;;
5929;SDS011;2990;48.746;9.236;2022-09-09T17:35:55;868.50;;;807.55;;
5929;SDS011;2990;48.746;9.236;2022-09-09T17:38:31;853.97;;;794.13;;
5929;SDS011;2990;48.746;9.236;2022-09-09T17:41:10;896.92;;;834.08;;
5929;SDS011;2990;48.746;9.236;2022-09-09T17:43:44;898.50;;;834.63;;
5929;SDS011;2990;48.746;9.236;2022-09-09T17:46:12;900.22;;;835.85;;
5929;SDS011;2990;48.746;9.236;2022-09-09T17:48:38;931.97;;;864.58;;
5929;SDS011;2990;48.746;9.236;2022-09-09T17:51:08;941.35;;;872.95;;
5929;SDS011;2990;48.746;9.236;2022-09-09T17:53:37;944.72;;;875.33;;
5929;SDS011;2990;48.746;9.236;2022-09-09T17:56:04;973.05;;;900.80;;
5929;SDS011;2990;48.746;9.236;2022-09-09T17:58:31;964.38;;;893.08;;
5929;SDS011;2990;48.746;9.236;2022-09-09T18:01:01;920.28;;;852.92;;
5929;SDS011;2990;48.746;9.236;2022-09-09T18:03:28;992.05;;;917.83;;
5929;SDS011;2990;48.746;9.236;2022-09-09T18:05:58;981.53;;;907.80;;
5929;SDS011;2990;48.746;9.236;2022-09-09T18:08:25;986.45;;;912.80;;
5929;SDS011;2990;48.746;9.236;2022-09-09T18:10:52;981.15;;;907.53;;
5929;SDS011;2990;48.746;9.236;2022-09-09T18:13:19;973.85;;;901.67;;
5929;SDS011;2990;48.746;9.236;2022-09-09T18:15:45;974.95;;;902.63;;
5929;SDS011;2990;48.746;9.236;2022-09-09T18:18:10;949.42;;;879.75;;
5929;SDS011;2990;48.746;9.236;2022-09-09T18:20:36;941.50;;;871.53;;
5929;SDS011;2990;48.746;9.236;2022-09-09T18:23:01;978.13;;;905.72;;
5929;SDS011;2990;48.746;9.236;2022-09-09T18:25:27;964.08;;;892.85;;
5929;SDS011;2990;48.746;9.236;2022-09-09T18:27:52;942.55;;;873.65;;
5929;SDS011;2990;48.746;9.236;2022-09-09T18:30:19;928.80;;;860.40;;
5929;SDS011;2990;48.746;9.236;2022-09-09T18:32:44;953.38;;;882.80;;
5929;SDS011;2990;48.746;9.236;2022-09-09T18:35:12;951.80;;;882.80;;
5929;SDS011;2990;48.746;9.236;2022-09-09T18:37:38;940.33;;;871.40;;
5929;SDS011;2990;48.746;9.236;2022-09-09T18:40:03;919.78;;;852.72;;
5929;SDS011;2990;48.746;9.236;2022-09-09T18:42:29;915.83;;;849.55;;
5929;SDS011;2990;48.746;9.236;2022-09-09T18:44:55;944.47;;;875.10;;
5929;SDS011;2990;48.746;9.236;2022-09-09T18:47:21;913.15;;;846.70;;
5929;SDS011;2990;48.746;9.236;2022-09-09T18:49:48;952.47;;;882.80;;
5929;SDS011;2990;48.746;9.236;2022-09-09T18:52:14;936.22;;;867.53;;
5929;SDS011;2990;48.746;9.236;2022-09-09T18:54:40;938.42;;;870.42;;
5929;SDS011;2990;48.746;9.236;2022-09-09T18:57:09;912.63;;;846.45;;
5929;SDS011;2990;48.746;9.236;2022-09-09T18:59:35;907.97;;;842.53;;
5929;SDS011;2990;48.746;9.236;2022-09-09T19:02:01;919.40;;;853.03;;
5929;SDS011;2990;48.746;9.236;2022-09-09T19:04:27;931.75;;;864.92;;
5929;SDS011;2990;48.746;9.236;2022-09-09T19:06:53;923.00;;;856.83;;
5929;SDS011;2990;48.746;9.236;2022-09-09T19:09:21;897.08;;;833.08;;
5929;SDS011;2990;48.746;9.236;2022-09-09T19:11:48;860.47;;;800.22;;
5929;SDS011;2990;48.746;9.236;2022-09-09T19:14:14;879.50;;;817.67;;
5929;SDS011;2990;48.746;9.236;2022-09-09T19:16:41;848.45;;;789.28;;
5929;SDS011;2990;48.746;9.236;2022-09-09T19:19:10;837.53;;;779.53;;
5929;SDS011;2990;48.746;9.236;2022-09-09T19:21:38;817.00;;;761.15;;
5929;SDS011;2990;48.746;9.236;2022-09-09T19:24:05;776.05;;;723.08;;
5929;SDS011;2990;48.746;9.236;2022-09-09T19:26:36;782.58;;;729.80;;
5929;SDS011;2990;48.746;9.236;2022-09-09T19:29:08;754.83;;;704.25;;
5929;SDS011;2990;48.746;9.236;2022-09-09T19:31:36;743.10;;;693.60;;
5929;SDS011;2990;48.746;9.236;2022-09-09T19:34:02;727.90;;;679.10;;
5929;SDS011;2990;48.746;9.236;2022-09-09T19:36:28;701.25;;;654.30;;
5929;SDS011;2990;48.746;9.236;2022-09-09T19:38:55;665.33;;;621.40;;
5929;SDS011;2990;48.746;9.236;2022-09-09T19:41:23;670.20;;;625.92;;
5929;SDS011;2990;48.746;9.236;2022-09-09T19:43:50;657.80;;;615.08;;
5929;SDS011;2990;48.746;9.236;2022-09-09T19:46:21;644.53;;;603.10;;
5929;SDS011;2990;48.746;9.236;2022-09-09T19:48:46;646.13;;;604.50;;
5929;SDS011;2990;48.746;9.236;2022-09-09T19:51:16;629.90;;;590.03;;
5929;SDS011;2990;48.746;9.236;2022-09-09T19:53:50;574.83;;;539.55;;
5929;SDS011;2990;48.746;9.236;2022-09-09T19:56:21;581.38;;;545.63;;
5929;SDS011;2990;48.746;9.236;2022-09-09T19:58:49;553.92;;;520.63;;
5929;SDS011;2990;48.746;9.236;2022-09-09T20:01:17;524.63;;;494.13;;
5929;SDS011;2990;48.746;9.236;2022-09-09T20:03:45;506.70;;;477.17;;
5929;SDS011;2990;48.746;9.236;2022-09-09T20:06:12;488.88;;;460.80;;
5929;SDS011;2990;48.746;9.236;2022-09-09T20:08:40;427.58;;;404.02;;
5929;SDS011;2990;48.746;9.236;2022-09-09T20:11:07;418.00;;;395.15;;
5929;SDS011;2990;48.746;9.236;2022-09-09T20:13:34;413.70;;;391.48;;
5929;SDS011;2990;48.746;9.236;2022-09-09T20:16:05;411.98;;;389.83;;
5929;SDS011;2990;48.746;9.236;2022-09-09T20:18:36;397.27;;;375.98;;
5929;SDS011;2990;48.746;9.236;2022-09-09T20:21:05;363.35;;;344.52;;
5929;SDS011;2990;48.746;9.236;2022-09-09T20:23:35;332.17;;;315.30;;
5929;SDS011;2990;48.746;9.236;2022-09-09T20:26:05;319.83;;;303.85;;
5929;SDS011;2990;48.746;9.236;2022-09-09T20:28:33;329.70;;;313.02;;
5929;SDS011;2990;48.746;9.236;2022-09-09T20:31:06;320.08;;;304.02;;
5929;SDS011;2990;48.746;9.236;2022-09-09T20:33:33;310.73;;;295.42;;
5929;SDS011;2990;48.746;9.236;2022-09-09T20:36:07;295.00;;;280.48;;
5929;SDS011;2990;48.746;9.236;2022-09-09T20:38:55;252.90;;;240.85;;
5929;SDS011;2990;48.746;9.236;2022-09-09T20:41:22;269.73;;;256.83;;
5929;SDS011;2990;48.746;9.236;2022-09-09T20:43:50;248.48;;;236.70;;
5929;SDS011;2990;48.746;9.236;2022-09-09T20:46:18;227.80;;;217.30;;
5929;SDS011;2990;48.746;9.236;2022-09-09T20:48:45;223.18;;;212.90;;
5929;SDS011;2990;48.746;9.236;2022-09-09T20:51:12;232.25;;;221.43;;
5929;SDS011;2990;48.746;9.236;2022-09-09T20:53:40;219.73;;;209.73;;
5929;SDS011;2990;48.746;9.236;2022-09-09T20:56:06;197.90;;;188.93;;
5929;SDS011;2990;48.746;9.236;2022-09-09T20:58:33;193.07;;;184.45;;
5929;SDS011;2990;48.746;9.236;2022-09-09T21:00:59;188.82;;;180.43;;
5929;SDS011;2990;48.746;9.236;2022-09-09T21:03:27;167.10;;;159.80;;
5929;SDS011;2990;48.746;9.236;2022-09-09T21:05:54;153.85;;;147.18;;
5929;SDS011;2990;48.746;9.236;2022-09-09T21:08:22;150.35;;;143.88;;
5929;SDS011;2990;48.746;9.236;2022-09-09T21:10:48;148.32;;;141.93;;
5929;SDS011;2990;48.746;9.236;2022-09-09T21:13:15;130.65;;;125.10;;
5929;SDS011;2990;48.746;9.236;2022-09-09T21:15:42;129.10;;;123.65;;
5929;SDS011;2990;48.746;9.236;2022-09-09T21:18:09;113.53;;;108.75;;
5929;SDS011;2990;48.746;9.236;2022-09-09T21:20:35;111.32;;;106.63;;
5929;SDS011;2990;48.746;9.236;2022-09-09T21:23:01;109.65;;;105.03;;
5929;SDS011;2990;48.746;9.236;2022-09-09T21:25:27;102.53;;;98.22;;
5929;SDS011;2990;48.746;9.236;2022-09-09T21:27:52;92.60;;;88.70;;
5929;SDS011;2990;48.746;9.236;2022-09-09T21:30:18;90.82;;;87.03;;
5929;SDS011;2990;48.746;9.236;2022-09-09T21:32:43;86.90;;;83.20;;
5929;SDS011;2990;48.746;9.236;2022-09-09T21:35:09;81.13;;;77.72;;
5929;SDS011;2990;48.746;9.236;2022-09-09T21:37:36;82.07;;;78.47;;
5929;SDS011;2990;48.746;9.236;2022-09-09T21:40:02;68.90;;;66.07;;
5929;SDS011;2990;48.746;9.236;2022-09-09T21:42:28;74.55;;;71.47;;
5929;SDS011;2990;48.746;9.236;2022-09-09T21:44:53;70.60;;;67.72;;
5929;SDS011;2990;48.746;9.236;2022-09-09T21:47:19;61.67;;;59.17;;
5929;SDS011;2990;48.746;9.236;2022-09-09T21:49:45;64.53;;;61.92;;
5929;SDS011;2990;48.746;9.236;2022-09-09T21:52:11;56.28;;;54.00;;
5929;SDS011;2990;48.746;9.236;2022-09-09T21:54:36;61.25;;;58.83;;
5929;SDS011;2990;48.746;9.236;2022-09-09T21:57:04;56.40;;;54.17;;
5929;SDS011;2990;48.746;9.236;2022-09-09T21:59:29;59.53;;;57.05;;
5929;SDS011;2990;48.746;9.236;2022-09-09T22:01:56;55.80;;;53.58;;
5929;SDS011;2990;48.746;9.236;2022-09-09T22:04:22;50.20;;;48.22;;
5929;SDS011;2990;48.746;9.236;2022-09-09T22:06:48;57.70;;;55.40;;
5929;SDS011;2990;48.746;9.236;2022-09-09T22:09:14;57.00;;;54.75;;
5929;SDS011;2990;48.746;9.236;2022-09-09T22:11:39;57.60;;;55.28;;
5929;SDS011;2990;48.746;9.236;2022-09-09T22:14:05;102.53;;;98.15;;
5929;SDS011;2990;48.746;9.236;2022-09-09T22:16:30;113.75;;;108.80;;
5929;SDS011;2990;48.746;9.236;2022-09-09T22:18:58;161.52;;;154.02;;
5929;SDS011;2990;48.746;9.236;2022-09-09T22:23:36;186.38;;;177.40;;
